sensor_id;sensor_type;location;lat;lon;timestamp;P1;durP1;ratioP1;P2;durP2;ratioP2
52342;SDS011;38277;51.972;4.624;2022-09-09T00:03:22;6.3;;;2.7;;
52342;SDS011;38277;51.972;4.624;2022-09-09T00:09:06;8.6;;;3.4;;
52342;SDS011;38277;51.972;4.624;2022-09-09T00:12:34;9.3;;;4.4;;
52342;SDS011;38277;51.972;4.624;2022-09-09T00:17:04;5.8;;;2.9;;
52342;SDS011;38277;51.972;4.624;2022-09-09T00:21:23;6.5;;;3.6;;
52342;SDS011;38277;51.972;4.624;2022-09-09T00:26:42;8.2;;;3.9;;
52342;SDS011;38277;51.972;4.624;2022-09-09T00:30:45;6.9;;;3.7;;
52342;SDS011;38277;51.972;4.624;2022-09-09T00:35:02;8.9;;;4.2;;
52342;SDS011;38277;51.972;4.624;2022-09-09T00:39:27;7.6;;;3.9;;
52342;SDS011;38277;51.972;4.624;2022-09-09T00:43:55;9.9;;;4.0;;
52342;SDS011;38277;51.972;4.624;2022-09-09T00:48:21;6.6;;;3.9;;
52342;SDS011;38277;51.972;4.624;2022-09-09T00:54:10;10.0;;;4.6;;
52342;SDS011;38277;51.972;4.624;2022-09-09T00:57:36;7.5;;;4.3;;
52342;SDS011;38277;51.972;4.624;2022-09-09T01:02:56;8.8;;;4.5;;
52342;SDS011;38277;51.972;4.624;2022-09-09T01:06:34;9.2;;;4.1;;
52342;SDS011;38277;51.972;4.624;2022-09-09T01:11:22;7.4;;;3.8;;
52342;SDS011;38277;51.972;4.624;2022-09-09T01:15:38;10.1;;;5.8;;
52342;SDS011;38277;51.972;4.624;2022-09-09T01:21:14;8.6;;;4.3;;
52342;SDS011;38277;51.972;4.624;2022-09-09T01:24:45;8.0;;;4.4;;
52342;SDS011;38277;51.972;4.624;2022-09-09T01:28:59;7.4;;;3.8;;
52342;SDS011;38277;51.972;4.624;2022-09-09T01:33:39;8.2;;;3.5;;
52342;SDS011;38277;51.972;4.624;2022-09-09T01:38:33;9.0;;;3.8;;
52342;SDS011;38277;51.972;4.624;2022-09-09T01:42:18;5.3;;;3.5;;
52342;SDS011;38277;51.972;4.624;2022-09-09T01:46:48;6.7;;;3.5;;
52342;SDS011;38277;51.972;4.624;2022-09-09T01:51:36;6.7;;;3.1;;
52342;SDS011;38277;51.972;4.624;2022-09-09T01:56:56;6.6;;;3.4;;
52342;SDS011;38277;51.972;4.624;2022-09-09T02:00:43;5.7;;;3.3;;
52342;SDS011;38277;51.972;4.624;2022-09-09T02:09:36;8.6;;;3.3;;
52342;SDS011;38277;51.972;4.624;2022-09-09T02:14:47;6.0;;;3.3;;
52342;SDS011;38277;51.972;4.624;2022-09-09T02:18:56;5.0;;;3.0;;
52342;SDS011;38277;51.972;4.624;2022-09-09T02:23:07;4.9;;;2.3;;
52342;SDS011;38277;51.972;4.624;2022-09-09T02:27:37;7.9;;;3.5;;
52342;SDS011;38277;51.972;4.624;2022-09-09T02:32:50;6.2;;;2.9;;
52342;SDS011;38277;51.972;4.624;2022-09-09T02:36:45;7.3;;;3.6;;
52342;SDS011;38277;51.972;4.624;2022-09-09T02:40:56;8.8;;;3.7;;
52342;SDS011;38277;51.972;4.624;2022-09-09T02:45:20;6.4;;;3.2;;
52342;SDS011;38277;51.972;4.624;2022-09-09T02:51:03;7.3;;;3.2;;
52342;SDS011;38277;51.972;4.624;2022-09-09T02:54:30;6.5;;;3.4;;
52342;SDS011;38277;51.972;4.624;2022-09-09T02:59:09;8.4;;;3.3;;
52342;SDS011;38277;51.972;4.624;2022-09-09T03:03:41;5.4;;;3.3;;
52342;SDS011;38277;51.972;4.624;2022-09-09T03:08:33;10.2;;;4.7;;
52342;SDS011;38277;51.972;4.624;2022-09-09T03:12:18;6.4;;;2.9;;
52342;SDS011;38277;51.972;4.624;2022-09-09T03:16:57;6.4;;;3.3;;
52342;SDS011;38277;51.972;4.624;2022-09-09T03:21:26;8.4;;;3.0;;
52342;SDS011;38277;51.972;4.624;2022-09-09T03:26:44;8.6;;;3.0;;
52342;SDS011;38277;51.972;4.624;2022-09-09T03:30:36;9.2;;;3.2;;
52342;SDS011;38277;51.972;4.624;2022-09-09T03:35:09;7.3;;;3.0;;
52342;SDS011;38277;51.972;4.624;2022-09-09T03:39:25;6.8;;;3.2;;
52342;SDS011;38277;51.972;4.624;2022-09-09T03:44:59;9.1;;;3.1;;
52342;SDS011;38277;51.972;4.624;2022-09-09T03:48:24;6.8;;;2.9;;
52342;SDS011;38277;51.972;4.624;2022-09-09T03:53:10;6.8;;;3.0;;
52342;SDS011;38277;51.972;4.624;2022-09-09T03:57:45;6.7;;;2.4;;
52342;SDS011;38277;51.972;4.624;2022-09-09T04:02:53;5.8;;;2.3;;
52342;SDS011;38277;51.972;4.624;2022-09-09T04:06:45;5.5;;;2.6;;
52342;SDS011;38277;51.972;4.624;2022-09-09T04:11:10;6.4;;;2.3;;
52342;SDS011;38277;51.972;4.624;2022-09-09T04:15:17;5.7;;;2.5;;
52342;SDS011;38277;51.972;4.624;2022-09-09T04:19:54;6.6;;;2.4;;
52342;SDS011;38277;51.972;4.624;2022-09-09T04:24:31;7.0;;;2.6;;
52342;SDS011;38277;51.972;4.624;2022-09-09T04:29:38;6.1;;;2.6;;
52342;SDS011;38277;51.972;4.624;2022-09-09T04:33:40;7.9;;;2.5;;
52342;SDS011;38277;51.972;4.624;2022-09-09T04:38:32;8.8;;;2.9;;
52342;SDS011;38277;51.972;4.624;2022-09-09T04:42:19;9.6;;;3.3;;
52342;SDS011;38277;51.972;4.624;2022-09-09T04:46:54;7.4;;;2.6;;
52342;SDS011;38277;51.972;4.624;2022-09-09T04:51:31;6.6;;;2.4;;
52342;SDS011;38277;51.972;4.624;2022-09-09T04:56:54;7.8;;;3.0;;
52342;SDS011;38277;51.972;4.624;2022-09-09T05:00:22;9.8;;;3.1;;
52342;SDS011;38277;51.972;4.624;2022-09-09T05:04:50;9.0;;;3.4;;
52342;SDS011;38277;51.972;4.624;2022-09-09T05:09:30;6.1;;;3.0;;
52342;SDS011;38277;51.972;4.624;2022-09-09T05:14:58;8.7;;;3.1;;
52342;SDS011;38277;51.972;4.624;2022-09-09T05:18:38;5.7;;;3.1;;
52342;SDS011;38277;51.972;4.624;2022-09-09T05:23:05;7.2;;;3.2;;
52342;SDS011;38277;51.972;4.624;2022-09-09T05:27:18;11.6;;;3.4;;
52342;SDS011;38277;51.972;4.624;2022-09-09T05:32:55;8.5;;;3.3;;
52342;SDS011;38277;51.972;4.624;2022-09-09T05:36:28;9.0;;;3.0;;
52342;SDS011;38277;51.972;4.624;2022-09-09T05:41:42;9.0;;;3.1;;
52342;SDS011;38277;51.972;4.624;2022-09-09T05:45:29;9.5;;;3.0;;
52342;SDS011;38277;51.972;4.624;2022-09-09T05:50:38;8.3;;;3.1;;
52342;SDS011;38277;51.972;4.624;2022-09-09T05:54:24;11.4;;;2.5;;
52342;SDS011;38277;51.972;4.624;2022-09-09T05:58:49;7.8;;;2.6;;
52342;SDS011;38277;51.972;4.624;2022-09-09T06:03:41;8.8;;;2.5;;
52342;SDS011;38277;51.972;4.624;2022-09-09T06:08:40;10.7;;;3.6;;
52342;SDS011;38277;51.972;4.624;2022-09-09T06:12:26;9.5;;;2.9;;
52342;SDS011;38277;51.972;4.624;2022-09-09T06:16:52;10.9;;;2.6;;
52342;SDS011;38277;51.972;4.624;2022-09-09T06:21:19;10.9;;;2.8;;
52342;SDS011;38277;51.972;4.624;2022-09-09T06:26:57;12.1;;;3.3;;
52342;SDS011;38277;51.972;4.624;2022-09-09T06:30:41;9.5;;;2.8;;
52342;SDS011;38277;51.972;4.624;2022-09-09T06:34:53;7.2;;;2.9;;
52342;SDS011;38277;51.972;4.624;2022-09-09T06:39:24;8.2;;;2.6;;
52342;SDS011;38277;51.972;4.624;2022-09-09T06:44:50;7.6;;;2.5;;
52342;SDS011;38277;51.972;4.624;2022-09-09T06:48:20;13.9;;;2.9;;
52342;SDS011;38277;51.972;4.624;2022-09-09T06:53:56;15.9;;;3.1;;
52342;SDS011;38277;51.972;4.624;2022-09-09T06:57:18;7.8;;;2.3;;
52342;SDS011;38277;51.972;4.624;2022-09-09T07:02:52;10.0;;;3.2;;
52342;SDS011;38277;51.972;4.624;2022-09-09T07:06:24;13.2;;;3.8;;
52342;SDS011;38277;51.972;4.624;2022-09-09T07:11:01;11.2;;;3.1;;
52342;SDS011;38277;51.972;4.624;2022-09-09T07:15:38;10.5;;;2.9;;
52342;SDS011;38277;51.972;4.624;2022-09-09T07:20:59;11.1;;;3.0;;
52342;SDS011;38277;51.972;4.624;2022-09-09T07:24:25;11.7;;;3.8;;
52342;SDS011;38277;51.972;4.624;2022-09-09T07:28:51;12.1;;;3.4;;
52342;SDS011;38277;51.972;4.624;2022-09-09T07:33:44;8.1;;;2.7;;
52342;SDS011;38277;51.972;4.624;2022-09-09T07:38:54;9.9;;;3.9;;
52342;SDS011;38277;51.972;4.624;2022-09-09T07:42:28;9.3;;;3.5;;
52342;SDS011;38277;51.972;4.624;2022-09-09T07:47:02;7.3;;;3.0;;
52342;SDS011;38277;51.972;4.624;2022-09-09T07:51:19;10.3;;;4.1;;
52342;SDS011;38277;51.972;4.624;2022-09-09T07:56:45;12.7;;;4.2;;
52342;SDS011;38277;51.972;4.624;2022-09-09T08:00:39;9.4;;;3.2;;
52342;SDS011;38277;51.972;4.624;2022-09-09T08:04:57;11.1;;;4.1;;
52342;SDS011;38277;51.972;4.624;2022-09-09T08:09:23;10.4;;;3.7;;
52342;SDS011;38277;51.972;4.624;2022-09-09T08:13:52;9.8;;;3.5;;
52342;SDS011;38277;51.972;4.624;2022-09-09T08:18:25;6.0;;;2.9;;
52342;SDS011;38277;51.972;4.624;2022-09-09T08:22:49;11.6;;;3.6;;
52342;SDS011;38277;51.972;4.624;2022-09-09T08:27:29;10.3;;;3.4;;
52342;SDS011;38277;51.972;4.624;2022-09-09T08:31:53;9.9;;;3.2;;
52342;SDS011;38277;51.972;4.624;2022-09-09T08:36:46;6.8;;;2.8;;
52342;SDS011;38277;51.972;4.624;2022-09-09T08:41:31;9.6;;;3.3;;
52342;SDS011;38277;51.972;4.624;2022-09-09T08:45:42;11.4;;;3.6;;
52342;SDS011;38277;51.972;4.624;2022-09-09T08:50:22;11.0;;;3.4;;
52342;SDS011;38277;51.972;4.624;2022-09-09T08:54:41;10.1;;;3.8;;
52342;SDS011;38277;51.972;4.624;2022-09-09T08:59:08;10.0;;;3.1;;
52342;SDS011;38277;51.972;4.624;2022-09-09T09:03:56;10.8;;;3.3;;
52342;SDS011;38277;51.972;4.624;2022-09-09T09:08:28;10.2;;;3.2;;
52342;SDS011;38277;51.972;4.624;2022-09-09T09:12:38;9.0;;;3.0;;
52342;SDS011;38277;51.972;4.624;2022-09-09T09:17:15;8.0;;;3.0;;
52342;SDS011;38277;51.972;4.624;2022-09-09T09:21:42;16.7;;;3.4;;
52342;SDS011;38277;51.972;4.624;2022-09-09T09:25:49;10.4;;;3.2;;
52342;SDS011;38277;51.972;4.624;2022-09-09T09:30:22;10.1;;;3.3;;
52342;SDS011;38277;51.972;4.624;2022-09-09T09:35:06;11.9;;;3.0;;
52342;SDS011;38277;51.972;4.624;2022-09-09T09:39:25;9.9;;;3.1;;
52342;SDS011;38277;51.972;4.624;2022-09-09T09:44:04;9.7;;;3.1;;
52342;SDS011;38277;51.972;4.624;2022-09-09T09:48:34;12.1;;;3.3;;
52342;SDS011;38277;51.972;4.624;2022-09-09T09:52:53;10.4;;;2.7;;
52342;SDS011;38277;51.972;4.624;2022-09-09T09:57:18;12.1;;;3.5;;
52342;SDS011;38277;51.972;4.624;2022-09-09T10:02:05;10.1;;;3.2;;
52342;SDS011;38277;51.972;4.624;2022-09-09T10:06:28;9.6;;;2.8;;
52342;SDS011;38277;51.972;4.624;2022-09-09T10:11:04;9.1;;;3.0;;
52342;SDS011;38277;51.972;4.624;2022-09-09T10:15:46;11.0;;;2.5;;
52342;SDS011;38277;51.972;4.624;2022-09-09T10:20:04;7.7;;;2.2;;
52342;SDS011;38277;51.972;4.624;2022-09-09T10:25:27;9.5;;;2.6;;
52342;SDS011;38277;51.972;4.624;2022-09-09T10:29:40;8.2;;;2.3;;
52342;SDS011;38277;51.972;4.624;2022-09-09T10:34:42;6.0;;;2.3;;
52342;SDS011;38277;51.972;4.624;2022-09-09T10:38:10;6.5;;;2.6;;
52342;SDS011;38277;51.972;4.624;2022-09-09T10:42:39;7.8;;;2.1;;
52342;SDS011;38277;51.972;4.624;2022-09-09T10:47:37;7.8;;;2.5;;
52342;SDS011;38277;51.972;4.624;2022-09-09T10:52:07;8.7;;;2.4;;
52342;SDS011;38277;51.972;4.624;2022-09-09T10:55:56;9.9;;;2.5;;
52342;SDS011;38277;51.972;4.624;2022-09-09T11:00:30;8.6;;;2.8;;
52342;SDS011;38277;51.972;4.624;2022-09-09T11:04:58;6.2;;;2.8;;
52342;SDS011;38277;51.972;4.624;2022-09-09T11:09:30;7.3;;;2.7;;
52342;SDS011;38277;51.972;4.624;2022-09-09T11:14:14;5.8;;;2.2;;
52342;SDS011;38277;51.972;4.624;2022-09-09T11:18:31;10.2;;;3.3;;
52342;SDS011;38277;51.972;4.624;2022-09-09T11:22:48;7.6;;;2.4;;
52342;SDS011;38277;51.972;4.624;2022-09-09T11:27:54;6.8;;;2.1;;
52342;SDS011;38277;51.972;4.624;2022-09-09T11:33:13;5.5;;;2.3;;
52342;SDS011;38277;51.972;4.624;2022-09-09T11:38:26;6.0;;;2.3;;
52342;SDS011;38277;51.972;4.624;2022-09-09T11:40:54;7.5;;;2.4;;
52342;SDS011;38277;51.972;4.624;2022-09-09T11:45:41;9.7;;;2.3;;
52342;SDS011;38277;51.972;4.624;2022-09-09T11:50:10;8.3;;;2.3;;
52342;SDS011;38277;51.972;4.624;2022-09-09T11:54:48;7.3;;;2.3;;
52342;SDS011;38277;51.972;4.624;2022-09-09T11:58:55;8.1;;;2.1;;
52342;SDS011;38277;51.972;4.624;2022-09-09T12:03:50;6.6;;;2.5;;
52342;SDS011;38277;51.972;4.624;2022-09-09T12:07:47;6.6;;;2.2;;
52342;SDS011;38277;51.972;4.624;2022-09-09T12:12:39;8.4;;;3.0;;
52342;SDS011;38277;51.972;4.624;2022-09-09T12:17:09;7.6;;;2.9;;
52342;SDS011;38277;51.972;4.624;2022-09-09T12:21:36;7.3;;;3.2;;
52342;SDS011;38277;51.972;4.624;2022-09-09T12:26:03;9.0;;;3.3;;
52342;SDS011;38277;51.972;4.624;2022-09-09T12:30:46;9.1;;;3.4;;
52342;SDS011;38277;51.972;4.624;2022-09-09T12:34:58;10.9;;;4.6;;
52342;SDS011;38277;51.972;4.624;2022-09-09T12:39:43;7.5;;;3.0;;
52342;SDS011;38277;51.972;4.624;2022-09-09T12:44:06;9.8;;;3.3;;
52342;SDS011;38277;51.972;4.624;2022-09-09T12:48:35;8.1;;;3.0;;
52342;SDS011;38277;51.972;4.624;2022-09-09T12:52:53;8.0;;;3.1;;
52342;SDS011;38277;51.972;4.624;2022-09-09T12:57:39;8.2;;;3.4;;
52342;SDS011;38277;51.972;4.624;2022-09-09T13:01:58;6.6;;;2.5;;
52342;SDS011;38277;51.972;4.624;2022-09-09T13:06:42;6.8;;;2.6;;
52342;SDS011;38277;51.972;4.624;2022-09-09T13:11:49;6.1;;;2.3;;
52342;SDS011;38277;51.972;4.624;2022-09-09T13:16:32;6.3;;;2.6;;
52342;SDS011;38277;51.972;4.624;2022-09-09T13:20:15;6.8;;;2.7;;
52342;SDS011;38277;51.972;4.624;2022-09-09T13:24:32;4.2;;;1.5;;
52342;SDS011;38277;51.972;4.624;2022-09-09T13:28:52;5.2;;;1.8;;
52342;SDS011;38277;51.972;4.624;2022-09-09T13:33:38;3.4;;;1.6;;
52342;SDS011;38277;51.972;4.624;2022-09-09T13:38:08;6.3;;;2.2;;
52342;SDS011;38277;51.972;4.624;2022-09-09T13:43:22;6.6;;;1.9;;
52342;SDS011;38277;51.972;4.624;2022-09-09T13:47:00;7.5;;;2.3;;
52342;SDS011;38277;51.972;4.624;2022-09-09T13:56:01;5.1;;;1.7;;
52342;SDS011;38277;51.972;4.624;2022-09-09T14:01:23;9.2;;;1.9;;
52342;SDS011;38277;51.972;4.624;2022-09-09T14:04:50;5.3;;;1.4;;
52342;SDS011;38277;51.972;4.624;2022-09-09T14:09:41;5.1;;;1.8;;
52342;SDS011;38277;51.972;4.624;2022-09-09T14:14:12;3.1;;;1.8;;
52342;SDS011;38277;51.972;4.624;2022-09-09T14:19:15;4.6;;;1.8;;
52342;SDS011;38277;51.972;4.624;2022-09-09T14:22:48;4.8;;;2.0;;
52342;SDS011;38277;51.972;4.624;2022-09-09T14:27:44;6.6;;;2.0;;
52342;SDS011;38277;51.972;4.624;2022-09-09T14:32:01;8.2;;;2.4;;
52342;SDS011;38277;51.972;4.624;2022-09-09T14:37:18;4.8;;;1.9;;
52342;SDS011;38277;51.972;4.624;2022-09-09T14:41:00;4.2;;;2.1;;
52342;SDS011;38277;51.972;4.624;2022-09-09T14:46:14;5.8;;;1.7;;
52342;SDS011;38277;51.972;4.624;2022-09-09T14:50:11;6.2;;;1.9;;
52342;SDS011;38277;51.972;4.624;2022-09-09T14:55:12;6.2;;;1.6;;
52342;SDS011;38277;51.972;4.624;2022-09-09T14:58:54;4.5;;;1.7;;
52342;SDS011;38277;51.972;4.624;2022-09-09T15:04:13;9.2;;;1.8;;
52342;SDS011;38277;51.972;4.624;2022-09-09T15:07:53;5.5;;;1.4;;
52342;SDS011;38277;51.972;4.624;2022-09-09T15:13:23;4.7;;;1.5;;
52342;SDS011;38277;51.972;4.624;2022-09-09T15:17:01;7.0;;;1.4;;
52342;SDS011;38277;51.972;4.624;2022-09-09T15:21:45;9.3;;;1.8;;
52342;SDS011;38277;51.972;4.624;2022-09-09T15:26:14;3.4;;;1.2;;
52342;SDS011;38277;51.972;4.624;2022-09-09T15:31:26;4.2;;;1.7;;
52342;SDS011;38277;51.972;4.624;2022-09-09T15:35:11;3.6;;;1.8;;
52342;SDS011;38277;51.972;4.624;2022-09-09T15:39:27;6.3;;;1.6;;
52342;SDS011;38277;51.972;4.624;2022-09-09T15:43:50;6.5;;;2.0;;
52342;SDS011;38277;51.972;4.624;2022-09-09T15:49:27;5.8;;;2.3;;
52342;SDS011;38277;51.972;4.624;2022-09-09T15:53:06;6.3;;;2.3;;
52342;SDS011;38277;51.972;4.624;2022-09-09T15:57:43;6.8;;;2.2;;
52342;SDS011;38277;51.972;4.624;2022-09-09T16:02:09;5.6;;;2.2;;
52342;SDS011;38277;51.972;4.624;2022-09-09T16:07:13;9.4;;;2.5;;
52342;SDS011;38277;51.972;4.624;2022-09-09T16:11:14;9.3;;;3.1;;
52342;SDS011;38277;51.972;4.624;2022-09-09T16:15:27;7.0;;;3.0;;
52342;SDS011;38277;51.972;4.624;2022-09-09T16:19:51;7.5;;;3.2;;
52342;SDS011;38277;51.972;4.624;2022-09-09T16:25:28;8.2;;;2.9;;
52342;SDS011;38277;51.972;4.624;2022-09-09T16:28:46;13.4;;;2.9;;
52342;SDS011;38277;51.972;4.624;2022-09-09T16:38:00;7.5;;;2.6;;
52342;SDS011;38277;51.972;4.624;2022-09-09T16:43:20;6.4;;;2.9;;
52342;SDS011;38277;51.972;4.624;2022-09-09T16:47:05;4.3;;;2.6;;
52342;SDS011;38277;51.972;4.624;2022-09-09T16:52:53;6.7;;;3.3;;
52342;SDS011;38277;51.972;4.624;2022-09-09T16:56:16;7.3;;;2.4;;
52342;SDS011;38277;51.972;4.624;2022-09-09T17:01:10;5.4;;;2.3;;
52342;SDS011;38277;51.972;4.624;2022-09-09T17:04:58;5.8;;;3.2;;
52342;SDS011;38277;51.972;4.624;2022-09-09T17:09:16;4.9;;;2.8;;
52342;SDS011;38277;51.972;4.624;2022-09-09T17:14:07;4.7;;;3.1;;
52342;SDS011;38277;51.972;4.624;2022-09-09T17:19:25;6.6;;;3.1;;
52342;SDS011;38277;51.972;4.624;2022-09-09T17:22:51;6.4;;;3.0;;
52342;SDS011;38277;51.972;4.624;2022-09-09T17:28:27;7.2;;;3.2;;
52342;SDS011;38277;51.972;4.624;2022-09-09T17:31:47;6.7;;;2.9;;
52342;SDS011;38277;51.972;4.624;2022-09-09T17:37:02;8.0;;;3.7;;
52342;SDS011;38277;51.972;4.624;2022-09-09T17:41:02;5.7;;;3.1;;
52342;SDS011;38277;51.972;4.624;2022-09-09T17:45:16;4.9;;;3.1;;
52342;SDS011;38277;51.972;4.624;2022-09-09T17:50:03;5.7;;;2.7;;
52342;SDS011;38277;51.972;4.624;2022-09-09T17:55:22;5.5;;;3.0;;
52342;SDS011;38277;51.972;4.624;2022-09-09T17:59:12;6.0;;;2.7;;
52342;SDS011;38277;51.972;4.624;2022-09-09T18:03:20;7.2;;;2.8;;
52342;SDS011;38277;51.972;4.624;2022-09-09T18:08:04;8.1;;;2.7;;
52342;SDS011;38277;51.972;4.624;2022-09-09T18:13:18;6.6;;;2.6;;
52342;SDS011;38277;51.972;4.624;2022-09-09T18:17:56;5.9;;;2.6;;
52342;SDS011;38277;51.972;4.624;2022-09-09T18:21:17;5.9;;;2.6;;
52342;SDS011;38277;51.972;4.624;2022-09-09T18:25:51;8.2;;;3.3;;
52342;SDS011;38277;51.972;4.624;2022-09-09T18:34:57;7.7;;;2.7;;
52342;SDS011;38277;51.972;4.624;2022-09-09T18:40:25;4.7;;;2.3;;
52342;SDS011;38277;51.972;4.624;2022-09-09T18:44:02;5.9;;;2.5;;
52342;SDS011;38277;51.972;4.624;2022-09-09T18:49:22;6.8;;;2.9;;
52342;SDS011;38277;51.972;4.624;2022-09-09T18:53:03;7.0;;;2.1;;
52342;SDS011;38277;51.972;4.624;2022-09-09T18:57:17;4.4;;;1.9;;
52342;SDS011;38277;51.972;4.624;2022-09-09T19:02:11;6.8;;;2.4;;
52342;SDS011;38277;51.972;4.624;2022-09-09T19:07:15;7.0;;;2.5;;
52342;SDS011;38277;51.972;4.624;2022-09-09T19:11:15;4.4;;;2.2;;
52342;SDS011;38277;51.972;4.624;2022-09-09T19:15:41;5.2;;;2.4;;
52342;SDS011;38277;51.972;4.624;2022-09-09T19:19:55;6.0;;;2.7;;
52342;SDS011;38277;51.972;4.624;2022-09-09T19:25:07;7.3;;;2.8;;
52342;SDS011;38277;51.972;4.624;2022-09-09T19:29:15;4.0;;;2.4;;
52342;SDS011;38277;51.972;4.624;2022-09-09T19:33:16;6.8;;;3.0;;
52342;SDS011;38277;51.972;4.624;2022-09-09T19:38:10;8.1;;;3.0;;
52342;SDS011;38277;51.972;4.624;2022-09-09T19:43:26;5.4;;;2.7;;
52342;SDS011;38277;51.972;4.624;2022-09-09T19:47:09;7.1;;;2.7;;
52342;SDS011;38277;51.972;4.624;2022-09-09T19:51:19;8.5;;;3.8;;
52342;SDS011;38277;51.972;4.624;2022-09-09T19:55:55;6.8;;;2.7;;
52342;SDS011;38277;51.972;4.624;2022-09-09T20:01:08;4.9;;;2.8;;
52342;SDS011;38277;51.972;4.624;2022-09-09T20:05:12;7.9;;;2.9;;
52342;SDS011;38277;51.972;4.624;2022-09-09T20:09:20;6.5;;;2.5;;
52342;SDS011;38277;51.972;4.624;2022-09-09T20:13:54;5.6;;;2.5;;
52342;SDS011;38277;51.972;4.624;2022-09-09T20:19:10;5.7;;;2.7;;
52342;SDS011;38277;51.972;4.624;2022-09-09T20:23:07;6.2;;;2.8;;
52342;SDS011;38277;51.972;4.624;2022-09-09T20:27:40;7.1;;;2.9;;
52342;SDS011;38277;51.972;4.624;2022-09-09T20:31:53;6.4;;;2.7;;
52342;SDS011;38277;51.972;4.624;2022-09-09T20:37:27;6.0;;;2.5;;
52342;SDS011;38277;51.972;4.624;2022-09-09T20:40:58;9.7;;;2.5;;
52342;SDS011;38277;51.972;4.624;2022-09-09T20:45:20;6.4;;;2.1;;
52342;SDS011;38277;51.972;4.624;2022-09-09T20:49:51;4.8;;;2.1;;
52342;SDS011;38277;51.972;4.624;2022-09-09T20:55:29;5.8;;;2.3;;
52342;SDS011;38277;51.972;4.624;2022-09-09T20:59:12;6.4;;;2.5;;
52342;SDS011;38277;51.972;4.624;2022-09-09T21:03:43;5.5;;;2.6;;
52342;SDS011;38277;51.972;4.624;2022-09-09T21:07:56;7.4;;;2.8;;
52342;SDS011;38277;51.972;4.624;2022-09-09T21:13:01;6.8;;;2.6;;
52342;SDS011;38277;51.972;4.624;2022-09-09T21:17:08;5.4;;;2.3;;
52342;SDS011;38277;51.972;4.624;2022-09-09T21:22:07;5.8;;;2.1;;
52342;SDS011;38277;51.972;4.624;2022-09-09T21:26:02;4.5;;;1.9;;
52342;SDS011;38277;51.972;4.624;2022-09-09T21:31:28;3.4;;;1.6;;
52342;SDS011;38277;51.972;4.624;2022-09-09T21:35:09;4.0;;;1.9;;
52342;SDS011;38277;51.972;4.624;2022-09-09T21:44:09;9.9;;;3.9;;
52342;SDS011;38277;51.972;4.624;2022-09-09T21:49:30;7.2;;;3.2;;
52342;SDS011;38277;51.972;4.624;2022-09-09T21:52:53;10.3;;;3.6;;
52342;SDS011;38277;51.972;4.624;2022-09-09T21:57:22;9.3;;;3.6;;
52342;SDS011;38277;51.972;4.624;2022-09-09T22:07:22;13.1;;;4.2;;
52342;SDS011;38277;51.972;4.624;2022-09-09T22:11:06;10.9;;;3.5;;
52342;SDS011;38277;51.972;4.624;2022-09-09T22:15:43;17.4;;;5.4;;
52342;SDS011;38277;51.972;4.624;2022-09-09T22:20:12;13.1;;;4.8;;
52342;SDS011;38277;51.972;4.624;2022-09-09T22:25:16;11.3;;;5.2;;
52342;SDS011;38277;51.972;4.624;2022-09-09T22:29:15;14.5;;;5.7;;
52342;SDS011;38277;51.972;4.624;2022-09-09T22:33:28;12.8;;;5.3;;
52342;SDS011;38277;51.972;4.624;2022-09-09T22:38:01;15.2;;;7.1;;
52342;SDS011;38277;51.972;4.624;2022-09-09T22:43:05;15.0;;;7.2;;
52342;SDS011;38277;51.972;4.624;2022-09-09T22:46:46;16.5;;;7.0;;
52342;SDS011;38277;51.972;4.624;2022-09-09T22:52:27;15.2;;;7.2;;
52342;SDS011;38277;51.972;4.624;2022-09-09T22:56:09;20.7;;;8.2;;
52342;SDS011;38277;51.972;4.624;2022-09-09T23:01:24;13.2;;;6.1;;
52342;SDS011;38277;51.972;4.624;2022-09-09T23:05:06;13.1;;;6.8;;
52342;SDS011;38277;51.972;4.624;2022-09-09T23:13:54;11.9;;;6.4;;
52342;SDS011;38277;51.972;4.624;2022-09-09T23:19:26;13.0;;;6.8;;
52342;SDS011;38277;51.972;4.624;2022-09-09T23:22:51;13.7;;;6.3;;
52342;SDS011;38277;51.972;4.624;2022-09-09T23:27:48;15.2;;;6.3;;
52342;SDS011;38277;51.972;4.624;2022-09-09T23:32:00;13.8;;;5.7;;
52342;SDS011;38277;51.972;4.624;2022-09-09T23:37:15;11.1;;;4.5;;
52342;SDS011;38277;51.972;4.624;2022-09-09T23:41:18;13.6;;;5.2;;
52342;SDS011;38277;51.972;4.624;2022-09-09T23:50:15;10.7;;;4.4;;
52342;SDS011;38277;51.972;4.624;2022-09-09T23:55:29;11.7;;;3.7;;
52342;SDS011;38277;51.972;4.624;2022-09-09T23:58:57;11.9;;;4.0;;
